Time;durP1;ratioP1;P1;durP2;ratioP2;P2;SDS_P1;SDS_P2;PMS_P1;PMS_P2;Temp;Humidity;BMP_temperature;BMP_pressure;BME280_temperature;BME280_humidity;BME280_pressure;Samples;Min_cycle;Max_cycle;Signal;HPM_P1;HPM_P2
2022/01/05 00:00:34;;;;;;;0.45;0.20;;;5.10;99.90;;;;;;5003981;28;20069;-86
2022/01/05 00:03:00;;;;;;;2.47;0.50;;;5.10;99.90;;;;;;4997886;28;20124;-87
2022/01/05 00:05:26;;;;;;;0.52;0.30;;;5.00;99.90;;;;;;4986475;28;20133;-87
2022/01/05 00:07:52;;;;;;;0.35;0.20;;;5.00;99.90;;;;;;4996141;28;20061;-87
2022/01/05 00:10:18;;;;;;;1.17;0.30;;;5.00;99.90;;;;;;5012782;28;20356;-86
2022/01/05 00:12:43;;;;;;;0.43;0.30;;;5.00;99.90;;;;;;4980534;28;20150;-86
2022/01/05 00:15:09;;;;;;;0.60;0.28;;;5.00;99.90;;;;;;5011494;28;20030;-86
2022/01/05 00:17:36;;;;;;;0.93;0.40;;;4.90;99.90;;;;;;5013176;28;20026;-86
2022/01/05 00:20:03;;;;;;;5.68;0.52;;;4.90;99.90;;;;;;5001197;28;20146;-87
2022/01/05 00:22:31;;;;;;;0.45;0.40;;;4.90;99.90;;;;;;4977385;28;20037;-86
2022/01/05 00:24:58;;;;;;;0.60;0.30;;;5.00;99.90;;;;;;4991890;28;20034;-86
2022/01/05 00:27:27;;;;;;;0.93;0.30;;;4.90;99.90;;;;;;4966863;28;20054;-87
2022/01/05 00:29:53;;;;;;;1.27;0.40;;;4.90;99.90;;;;;;5011690;28;20025;-87
2022/01/05 00:32:19;;;;;;;1.50;0.70;;;4.90;99.90;;;;;;5012796;28;20546;-86
2022/01/05 00:34:45;;;;;;;1.02;0.45;;;4.90;99.90;;;;;;4980215;28;20026;-86
2022/01/05 00:37:11;;;;;;;0.70;0.30;;;4.90;99.90;;;;;;4978575;28;20042;-87
2022/01/05 00:39:40;;;;;;;3.83;0.68;;;5.00;99.90;;;;;;4996518;28;20056;-87
2022/01/05 00:42:08;;;;;;;0.70;0.40;;;5.00;99.90;;;;;;4966106;28;20034;-86
2022/01/05 00:44:33;;;;;;;1.35;0.50;;;5.00;99.90;;;;;;4996402;28;20038;-86
2022/01/05 00:46:59;;;;;;;0.80;0.40;;;5.00;99.90;;;;;;5013024;28;20518;-87
2022/01/05 00:49:28;;;;;;;1.33;0.68;;;5.00;99.90;;;;;;5009895;28;20295;-87
2022/01/05 00:51:54;;;;;;;1.13;0.50;;;5.00;99.90;;;;;;4979510;28;20462;-86
2022/01/05 00:54:20;;;;;;;1.20;0.40;;;5.10;99.90;;;;;;4972856;28;20034;-87
2022/01/05 00:56:46;;;;;;;3.53;0.63;;;5.00;99.90;;;;;;4985914;28;20497;-87
2022/01/05 00:59:11;;;;;;;1.77;0.80;;;5.00;99.90;;;;;;4960589;28;20027;-87
2022/01/05 01:01:37;;;;;;;0.70;0.60;;;5.10;99.90;;;;;;4968875;28;20039;-87
2022/01/05 01:04:04;;;;;;;0.90;0.68;;;5.10;99.90;;;;;;4996356;28;20117;-87
2022/01/05 01:06:31;;;;;;;2.72;0.70;;;5.10;99.90;;;;;;4995549;28;20045;-87
2022/01/05 01:08:57;;;;;;;3.30;0.90;;;5.10;99.90;;;;;;4995312;28;20034;-86
2022/01/05 01:11:22;;;;;;;1.33;0.65;;;5.10;99.90;;;;;;4974630;28;20046;-87
2022/01/05 01:13:48;;;;;;;4.88;1.10;;;5.10;99.90;;;;;;5007683;28;20030;-86
2022/01/05 01:16:14;;;;;;;3.30;0.90;;;5.10;99.90;;;;;;4979471;28;20213;-86
2022/01/05 01:18:39;;;;;;;2.97;1.20;;;5.00;99.90;;;;;;4977604;28;20031;-86
2022/01/05 01:21:08;;;;;;;1.33;0.90;;;5.10;99.90;;;;;;4984953;28;20424;-86
2022/01/05 01:23:36;;;;;;;6.53;1.00;;;5.10;99.90;;;;;;4994684;28;20446;-85
2022/01/05 01:26:04;;;;;;;4.63;1.10;;;5.00;99.90;;;;;;4990792;28;20246;-86
2022/01/05 01:28:30;;;;;;;7.80;1.77;;;5.10;99.90;;;;;;4999022;28;20041;-86
2022/01/05 01:30:56;;;;;;;10.35;1.00;;;5.10;99.90;;;;;;5008489;28;20030;-86
2022/01/05 01:33:21;;;;;;;8.40;1.30;;;5.10;99.90;;;;;;4964647;28;20033;-86
2022/01/05 01:35:47;;;;;;;3.13;1.20;;;5.20;99.90;;;;;;4976026;28;20038;-86
2022/01/05 01:38:13;;;;;;;2.95;1.60;;;5.20;99.90;;;;;;4979223;28;20033;-85
2022/01/05 01:40:39;;;;;;;2.63;1.25;;;5.20;99.90;;;;;;4977356;28;20467;-86
2022/01/05 01:43:05;;;;;;;2.95;1.27;;;5.20;99.90;;;;;;4977827;28;20033;-86
2022/01/05 01:45:31;;;;;;;4.13;1.42;;;5.20;99.90;;;;;;4976111;28;20034;-85
2022/01/05 01:47:56;;;;;;;4.97;1.55;;;5.20;99.90;;;;;;4960044;28;20037;-86
2022/01/05 01:50:23;;;;;;;5.00;1.60;;;5.20;99.90;;;;;;4969456;28;20125;-86
2022/01/05 01:52:48;;;;;;;4.30;1.52;;;5.20;99.90;;;;;;4960017;28;20034;-86
2022/01/05 01:55:14;;;;;;;8.88;1.52;;;5.20;99.90;;;;;;4992683;28;20034;-86
2022/01/05 01:57:43;;;;;;;6.05;1.50;;;5.20;99.90;;;;;;4994170;28;20037;-86
2022/01/05 02:00:10;;;;;;;2.63;1.35;;;5.20;99.90;;;;;;5009815;28;20032;-86
2022/01/05 02:02:37;;;;;;;7.18;1.92;;;5.20;99.90;;;;;;5011064;28;20037;-86
2022/01/05 02:05:04;;;;;;;2.97;1.50;;;5.20;99.90;;;;;;4994654;28;20026;-86
2022/01/05 02:07:30;;;;;;;6.78;1.58;;;5.20;99.90;;;;;;4991549;28;20026;-85
2022/01/05 02:09:55;;;;;;;4.72;1.80;;;5.20;99.90;;;;;;5007843;28;20026;-86
2022/01/05 02:12:26;;;;;;;4.40;1.75;;;5.30;99.90;;;;;;5011449;28;20036;-86
2022/01/05 02:14:55;;;;;;;3.35;1.55;;;5.30;99.90;;;;;;4994998;28;20040;-86
2022/01/05 02:17:29;;;;;;;5.15;1.35;;;5.30;99.90;;;;;;4993133;28;20493;-86
2022/01/05 02:19:55;;;;;;;7.05;1.80;;;5.30;99.90;;;;;;5007020;28;20497;-86
2022/01/05 02:22:20;;;;;;;4.28;1.10;;;5.30;99.90;;;;;;5003339;28;20056;-86
2022/01/05 02:24:47;;;;;;;4.53;1.10;;;5.30;99.90;;;;;;4989193;28;20092;-86
2022/01/05 02:27:16;;;;;;;4.63;1.00;;;5.30;99.90;;;;;;4966328;28;20086;-86
2022/01/05 02:29:42;;;;;;;4.28;1.55;;;5.30;99.90;;;;;;4974598;28;20385;-86
2022/01/05 02:32:08;;;;;;;2.45;1.45;;;5.30;99.90;;;;;;4988722;28;20036;-86
2022/01/05 02:34:34;;;;;;;9.65;1.27;;;5.30;99.90;;;;;;4995162;28;20038;-85
2022/01/05 02:37:00;;;;;;;3.00;1.75;;;5.30;99.90;;;;;;4994651;28;20029;-86
2022/01/05 02:39:25;;;;;;;4.10;1.63;;;5.30;99.90;;;;;;4994875;28;20034;-85
2022/01/05 02:41:52;;;;;;;2.63;1.38;;;5.30;99.90;;;;;;4994888;28;20125;-86
2022/01/05 02:44:18;;;;;;;0.68;0.45;;;5.30;99.90;;;;;;4977935;28;20026;-87
2022/01/05 02:46:44;;;;;;;0.30;0.30;;;4.80;99.90;;;;;;4960405;28;20034;-87
2022/01/05 02:49:10;;;;;;;0.20;0.20;;;4.30;99.90;;;;;;4970027;28;20034;-86
2022/01/05 02:51:35;;;;;;;0.10;0.10;;;3.80;99.90;;;;;;4977372;28;20108;-87
2022/01/05 02:54:02;;;;;;;0.35;0.10;;;3.50;99.90;;;;;;4992188;28;20385;-85
2022/01/05 02:56:27;;;;;;;0.30;0.10;;;3.40;99.90;;;;;;4995710;28;20425;-87
2022/01/05 02:58:53;;;;;;;0.30;0.20;;;3.30;99.90;;;;;;4994702;28;20034;-86
2022/01/05 03:01:19;;;;;;;0.10;0.10;;;3.10;99.90;;;;;;4963262;28;20307;-87
2022/01/05 03:03:44;;;;;;;1.08;0.30;;;3.10;99.90;;;;;;4978485;28;20027;-86
2022/01/05 03:06:10;;;;;;;0.57;0.20;;;3.10;99.90;;;;;;4995584;28;20034;-87
2022/01/05 03:08:36;;;;;;;1.08;0.30;;;3.00;99.90;;;;;;4978690;28;20486;-87
2022/01/05 03:11:02;;;;;;;0.73;0.17;;;3.00;99.90;;;;;;4993174;28;20493;-88
2022/01/05 03:13:27;;;;;;;0.20;0.20;;;3.00;99.90;;;;;;4987646;28;20088;-88
2022/01/05 03:15:54;;;;;;;0.45;0.20;;;3.00;99.90;;;;;;4992095;28;20180;-85
2022/01/05 03:18:20;;;;;;;2.10;0.28;;;3.00;99.90;;;;;;4981985;28;20061;-87
2022/01/05 03:20:49;;;;;;;0.20;0.20;;;3.00;99.90;;;;;;4961364;28;20493;-86
2022/01/05 03:23:18;;;;;;;0.28;0.20;;;3.10;99.90;;;;;;4981619;28;20034;-87
2022/01/05 03:25:44;;;;;;;0.08;0.00;;;3.10;99.90;;;;;;4983337;28;20053;-87
2022/01/05 03:28:10;;;;;;;0.00;0.00;;;3.10;99.90;;;;;;4994736;28;20029;-86
2022/01/05 03:30:36;;;;;;;0.10;0.10;;;3.10;99.90;;;;;;4995638;28;20120;-86
2022/01/05 03:33:09;;;;;;;0.28;0.28;;;3.00;99.90;;;;;;5013490;28;20034;-86
2022/01/05 03:35:41;;;;;;;0.10;0.10;;;3.00;99.90;;;;;;4999208;28;20034;-87
2022/01/05 03:38:07;;;;;;;0.15;0.15;;;3.00;99.90;;;;;;4982342;28;20536;-86
2022/01/05 03:40:34;;;;;;;0.08;0.08;;;3.00;99.90;;;;;;4998850;28;20034;-86
2022/01/05 03:43:01;;;;;;;0.40;0.20;;;3.00;99.90;;;;;;4980562;28;20511;-85
2022/01/05 03:45:27;;;;;;;0.43;0.20;;;3.00;99.90;;;;;;4998431;28;20030;-86
2022/01/05 03:47:52;;;;;;;0.10;0.10;;;3.10;99.90;;;;;;4984348;28;20038;-87
2022/01/05 03:50:18;;;;;;;1.23;0.20;;;3.10;99.90;;;;;;4981614;28;20069;-85
2022/01/05 03:52:44;;;;;;;0.52;0.25;;;3.10;99.90;;;;;;4983503;28;20486;-87
2022/01/05 03:55:09;;;;;;;1.65;0.30;;;3.10;99.90;;;;;;4980384;28;20034;-86
2022/01/05 03:57:35;;;;;;;0.30;0.22;;;3.10;99.90;;;;;;4998484;28;20037;-87
2022/01/05 04:00:03;;;;;;;0.30;0.20;;;3.20;99.90;;;;;;5014070;28;20022;-87
2022/01/05 04:02:30;;;;;;;0.20;0.10;;;3.20;99.90;;;;;;4979658;28;20664;-87
2022/01/05 04:04:56;;;;;;;0.73;0.20;;;3.20;99.90;;;;;;4982009;28;20032;-87
2022/01/05 04:07:22;;;;;;;0.28;0.28;;;3.20;99.90;;;;;;5014870;28;20396;-86
2022/01/05 04:09:47;;;;;;;0.10;0.10;;;3.20;99.90;;;;;;4989707;28;20030;-87
2022/01/05 04:12:13;;;;;;;0.17;0.17;;;3.20;99.90;;;;;;4978972;28;20058;-87
2022/01/05 04:14:42;;;;;;;0.47;0.30;;;3.10;99.90;;;;;;4989758;28;20508;-86
2022/01/05 04:17:08;;;;;;;0.30;0.20;;;3.10;99.90;;;;;;4982142;28;20034;-86
2022/01/05 04:19:35;;;;;;;0.85;0.20;;;3.20;99.90;;;;;;4990890;28;20073;-87
2022/01/05 04:22:01;;;;;;;0.40;0.20;;;3.10;99.90;;;;;;4978396;28;20382;-87
2022/01/05 04:24:27;;;;;;;0.57;0.20;;;3.20;99.90;;;;;;4994506;28;20573;-85
2022/01/05 04:26:53;;;;;;;0.40;0.28;;;3.20;99.90;;;;;;4998368;28;20158;-87
2022/01/05 04:29:18;;;;;;;1.40;0.30;;;3.20;99.90;;;;;;5033772;23;20070;-83
2022/01/05 04:31:45;;;;;;;3.05;0.30;;;3.30;99.90;;;;;;5026251;28;20108;-83
2022/01/05 04:34:11;;;;;;;0.95;0.35;;;3.20;99.90;;;;;;5039289;28;20248;-83
2022/01/05 04:36:37;;;;;;;0.63;0.30;;;3.20;99.90;;;;;;5020962;28;20053;-83
2022/01/05 04:39:03;;;;;;;0.32;0.30;;;3.10;99.90;;;;;;5037902;28;20818;-82
2022/01/05 04:41:29;;;;;;;0.95;0.35;;;3.10;99.90;;;;;;5057069;28;20035;-83
2022/01/05 04:43:55;;;;;;;2.95;0.32;;;3.10;99.90;;;;;;5057931;28;20076;-83
2022/01/05 04:46:21;;;;;;;1.58;0.38;;;3.10;99.90;;;;;;5022592;28;20124;-83
2022/01/05 04:48:46;;;;;;;0.40;0.30;;;3.10;99.90;;;;;;5054974;28;20121;-83
2022/01/05 04:51:12;;;;;;;0.57;0.43;;;3.10;99.90;;;;;;5034970;28;20519;-83
2022/01/05 04:53:38;;;;;;;0.30;0.30;;;3.00;99.90;;;;;;5020072;28;20358;-83
2022/01/05 04:56:03;;;;;;;1.02;0.47;;;3.00;99.90;;;;;;5016715;28;20045;-83
2022/01/05 04:58:31;;;;;;;0.30;0.30;;;3.00;99.90;;;;;;5019966;28;20112;-83
2022/01/05 05:00:56;;;;;;;0.77;0.40;;;3.00;99.90;;;;;;5033487;28;20025;-83
2022/01/05 05:03:22;;;;;;;1.60;0.43;;;2.90;99.90;;;;;;5035617;28;20044;-83
2022/01/05 05:05:48;;;;;;;0.35;0.35;;;2.90;99.90;;;;;;5020861;28;20105;-83
2022/01/05 05:08:13;;;;;;;4.30;0.90;;;2.90;99.90;;;;;;5040209;28;20558;-83
2022/01/05 05:10:39;;;;;;;2.15;0.90;;;2.80;99.90;;;;;;5027865;28;20037;-83
2022/01/05 05:13:12;;;;;;;2.38;0.93;;;2.70;99.90;;;;;;5004135;28;20033;-83
2022/01/05 05:15:39;;;;;;;0.57;0.57;;;2.70;99.90;;;;;;5052332;28;20041;-83
2022/01/05 05:18:05;;;;;;;1.52;0.82;;;2.60;99.90;;;;;;5012483;28;20025;-83
2022/01/05 05:20:32;;;;;;;1.52;0.82;;;2.60;99.90;;;;;;5040121;28;20033;-83
2022/01/05 05:22:59;;;;;;;1.13;0.90;;;2.60;99.90;;;;;;5027187;28;20571;-83
2022/01/05 05:25:28;;;;;;;1.67;0.77;;;2.50;99.90;;;;;;5052249;28;20044;-83
2022/01/05 05:27:54;;;;;;;3.10;1.15;;;2.50;99.90;;;;;;5030962;28;20124;-83
2022/01/05 05:30:20;;;;;;;2.17;0.95;;;2.50;99.90;;;;;;5036390;28;20168;-83
2022/01/05 05:32:46;;;;;;;5.45;1.10;;;2.50;99.90;;;;;;5043403;28;20396;-83
2022/01/05 05:35:11;;;;;;;2.30;0.77;;;2.50;99.90;;;;;;5036555;28;20043;-83
2022/01/05 05:37:37;;;;;;;3.42;1.00;;;2.50;99.90;;;;;;5028851;28;20037;-83
2022/01/05 05:40:04;;;;;;;6.35;1.00;;;2.40;99.90;;;;;;5051003;28;20032;-82
2022/01/05 05:42:32;;;;;;;4.65;1.30;;;2.50;99.90;;;;;;5038581;28;20036;-83
2022/01/05 05:44:58;;;;;;;1.55;1.10;;;2.50;99.90;;;;;;5032145;28;20063;-83
2022/01/05 05:47:24;;;;;;;2.60;1.08;;;2.40;99.90;;;;;;5057173;28;20029;-83
2022/01/05 05:49:49;;;;;;;3.42;0.98;;;2.50;99.90;;;;;;5038069;28;20132;-83
2022/01/05 05:52:16;;;;;;;2.85;1.20;;;2.50;99.90;;;;;;5021787;28;20487;-83
2022/01/05 05:54:42;;;;;;;3.13;0.90;;;2.40;99.90;;;;;;5047025;28;20036;-83
2022/01/05 05:57:08;;;;;;;9.00;1.08;;;2.40;99.90;;;;;;5009857;28;20056;-83
2022/01/05 05:59:33;;;;;;;1.60;1.17;;;2.40;99.90;;;;;;5049117;28;20388;-83
2022/01/05 06:01:59;;;;;;;3.70;1.10;;;2.30;99.90;;;;;;5033121;28;20265;-85
2022/01/05 06:04:26;;;;;;;3.05;0.90;;;2.30;99.90;;;;;;5039063;28;20052;-85
2022/01/05 06:06:52;;;;;;;2.13;1.05;;;2.20;99.90;;;;;;5025721;28;20055;-85
2022/01/05 06:09:18;;;;;;;3.03;1.10;;;2.10;99.90;;;;;;5029916;28;20033;-85
2022/01/05 06:11:44;;;;;;;3.15;1.48;;;2.10;99.90;;;;;;5013098;28;20036;-85
2022/01/05 06:14:09;;;;;;;5.13;1.55;;;2.00;99.90;;;;;;5020465;28;20044;-85
2022/01/05 06:16:35;;;;;;;3.10;1.20;;;2.00;99.90;;;;;;5021298;28;20128;-86
2022/01/05 06:19:04;;;;;;;2.75;1.38;;;1.90;99.90;;;;;;5020176;28;20026;-85
2022/01/05 06:21:30;;;;;;;8.00;1.50;;;1.90;99.90;;;;;;5032426;28;20037;-86
2022/01/05 06:23:56;;;;;;;3.10;1.30;;;1.90;99.90;;;;;;5032346;28;20495;-85
2022/01/05 06:26:22;;;;;;;4.57;1.13;;;1.80;99.90;;;;;;5032537;28;20036;-85
2022/01/05 06:28:48;;;;;;;9.05;1.83;;;1.80;99.90;;;;;;5028106;28;20048;-85
2022/01/05 06:31:14;;;;;;;5.95;1.25;;;1.80;99.90;;;;;;5014303;28;20030;-86
2022/01/05 06:33:40;;;;;;;6.13;1.17;;;1.70;99.90;;;;;;5027653;28;20049;-85
2022/01/05 06:36:05;;;;;;;2.42;1.25;;;1.60;99.90;;;;;;5010352;28;20578;-85
2022/01/05 06:38:31;;;;;;;5.32;1.05;;;1.60;99.90;;;;;;5027770;28;20516;-85
2022/01/05 06:40:57;;;;;;;2.40;1.23;;;1.60;99.90;;;;;;4996605;28;20030;-85
2022/01/05 06:43:22;;;;;;;4.80;1.27;;;1.60;99.90;;;;;;5008070;28;20037;-85
2022/01/05 06:45:51;;;;;;;6.00;1.10;;;1.50;99.90;;;;;;5029853;28;20614;-85
2022/01/05 06:48:17;;;;;;;7.05;1.40;;;1.50;99.90;;;;;;5032916;28;20029;-85
2022/01/05 06:50:42;;;;;;;4.82;1.38;;;1.50;99.90;;;;;;5030795;28;20414;-85
2022/01/05 06:53:12;;;;;;;1.65;1.05;;;1.50;99.90;;;;;;5032671;28;20071;-85
2022/01/05 06:55:37;;;;;;;8.27;1.30;;;1.40;99.90;;;;;;5049361;28;20029;-85
2022/01/05 06:58:03;;;;;;;7.78;1.60;;;1.40;99.90;;;;;;5013289;28;20121;-86
2022/01/05 07:00:31;;;;;;;6.60;1.55;;;1.30;99.90;;;;;;4996591;28;20033;-85
2022/01/05 07:02:56;;;;;;;6.18;1.30;;;1.30;99.90;;;;;;4997399;28;20025;-85
2022/01/05 07:05:22;;;;;;;7.80;1.30;;;1.30;99.90;;;;;;5026059;28;20030;-86
2022/01/05 07:07:48;;;;;;;4.35;1.23;;;1.30;99.90;;;;;;5046559;28;20031;-85
2022/01/05 07:10:14;;;;;;;6.70;1.23;;;1.30;99.90;;;;;;5019814;28;20033;-86
2022/01/05 07:12:41;;;;;;;6.32;1.30;;;1.30;99.90;;;;;;5033138;28;20040;-86
2022/01/05 07:15:07;;;;;;;1.70;1.08;;;1.30;99.90;;;;;;5033101;28;20400;-85
2022/01/05 07:17:33;;;;;;;5.68;1.33;;;1.30;99.90;;;;;;5040899;28;20050;-85
2022/01/05 07:19:59;;;;;;;8.02;1.58;;;1.20;99.90;;;;;;5046745;28;20032;-85
2022/01/05 07:22:25;;;;;;;4.22;1.20;;;1.20;99.90;;;;;;5035677;28;20029;-85
2022/01/05 07:24:56;;;;;;;7.57;1.55;;;1.20;99.90;;;;;;5052442;28;20025;-85
2022/01/05 07:27:22;;;;;;;;;;;1.20;99.90;;;;;;5036774;28;20119;-86
2022/01/05 07:29:47;;;;;;;4.78;1.52;;;1.20;99.90;;;;;;5023095;28;19943;-85
2022/01/05 07:32:13;;;;;;;4.95;1.02;;;1.10;99.90;;;;;;5042814;28;20028;-85
2022/01/05 07:34:39;;;;;;;9.68;1.67;;;1.10;99.90;;;;;;5028927;28;20041;-85
2022/01/05 07:37:04;;;;;;;5.95;2.92;;;1.10;99.90;;;;;;5019990;28;20026;-86
2022/01/05 07:39:30;;;;;;;12.45;2.13;;;1.00;99.90;;;;;;5011353;28;20033;-85
2022/01/05 07:41:56;;;;;;;9.05;1.75;;;1.00;99.90;;;;;;5017876;28;20022;-85
2022/01/05 07:44:22;;;;;;;8.18;1.30;;;1.00;99.90;;;;;;5035332;28;20107;-86
2022/01/05 07:46:47;;;;;;;6.47;1.42;;;0.90;99.90;;;;;;5035408;28;20059;-85
2022/01/05 07:49:13;;;;;;;12.65;1.92;;;0.90;99.90;;;;;;5035591;28;20033;-85
2022/01/05 07:51:39;;;;;;;12.52;1.50;;;0.90;99.90;;;;;;5035560;28;20124;-86
2022/01/05 07:54:05;;;;;;;4.75;1.40;;;0.90;99.90;;;;;;5028716;28;20043;-85
2022/01/05 07:56:33;;;;;;;17.05;1.58;;;0.90;99.90;;;;;;5011584;28;20059;-85
2022/01/05 07:58:59;;;;;;;5.38;1.15;;;0.90;99.90;;;;;;5021326;28;20030;-86
2022/01/05 08:01:25;;;;;;;3.88;1.33;;;0.90;99.90;;;;;;5024722;28;20080;-86
2022/01/05 08:03:51;;;;;;;3.05;1.17;;;0.90;99.90;;;;;;5022310;28;20507;-85
2022/01/05 08:06:17;;;;;;;7.22;1.42;;;0.90;99.90;;;;;;5023188;28;20037;-85
2022/01/05 08:08:44;;;;;;;14.23;1.52;;;0.90;99.90;;;;;;5027201;28;20491;-85
2022/01/05 08:11:10;;;;;;;5.47;1.45;;;0.90;99.90;;;;;;5033141;28;20048;-85
2022/01/05 08:13:39;;;;;;;4.95;1.58;;;0.90;99.90;;;;;;5025079;28;20042;-85
2022/01/05 08:16:05;;;;;;;13.13;2.15;;;1.00;99.90;;;;;;5017422;28;20102;-86
2022/01/05 08:18:31;;;;;;;5.35;2.17;;;1.00;99.90;;;;;;5032729;28;20026;-84
2022/01/05 08:21:00;;;;;;;12.10;1.75;;;1.00;99.90;;;;;;5004292;28;20022;-84
2022/01/05 08:23:26;;;;;;;10.07;1.50;;;1.00;99.90;;;;;;5011018;28;20040;-86
2022/01/05 08:25:52;;;;;;;8.68;1.48;;;1.10;99.90;;;;;;5034719;28;20033;-85
2022/01/05 08:28:19;;;;;;;10.18;1.70;;;1.10;99.90;;;;;;5051740;28;20037;-85
2022/01/05 08:30:51;;;;;;;7.93;1.77;;;1.10;99.90;;;;;;5033637;28;20025;-85
2022/01/05 08:33:18;;;;;;;14.02;1.90;;;1.20;99.90;;;;;;5021749;28;20029;-85
2022/01/05 08:35:48;;;;;;;9.50;1.73;;;1.20;99.90;;;;;;5034291;28;20522;-84
2022/01/05 08:38:15;;;;;;;6.65;1.80;;;1.30;99.90;;;;;;5032398;28;20044;-85
2022/01/05 08:40:41;;;;;;;12.30;1.95;;;1.40;99.90;;;;;;5025305;28;20124;-84
2022/01/05 08:43:10;;;;;;;13.35;2.13;;;1.50;99.90;;;;;;5032903;28;20044;-85
2022/01/05 08:45:36;;;;;;;10.10;1.85;;;1.50;99.90;;;;;;5048787;28;20387;-84
2022/01/05 08:48:02;;;;;;;13.88;1.98;;;1.60;99.90;;;;;;5052360;28;20036;-85
2022/01/05 08:50:31;;;;;;;6.40;1.83;;;1.60;99.90;;;;;;5027277;28;20711;-85
2022/01/05 08:52:58;;;;;;;5.72;1.70;;;1.60;99.90;;;;;;5035929;28;20021;-85
2022/01/05 08:55:28;;;;;;;10.18;2.10;;;1.60;99.90;;;;;;5030273;28;20033;-85
2022/01/05 08:57:55;;;;;;;7.97;2.13;;;1.60;99.90;;;;;;5025283;28;20029;-86
2022/01/05 09:00:24;;;;;;;13.25;1.85;;;1.60;99.90;;;;;;5002008;28;20397;-84
2022/01/05 09:02:50;;;;;;;7.50;1.50;;;1.60;99.90;;;;;;5035033;28;20783;-85
2022/01/05 09:05:17;;;;;;;5.47;1.60;;;1.70;99.90;;;;;;5049827;28;20059;-85
2022/01/05 09:07:43;;;;;;;6.13;1.50;;;1.70;99.90;;;;;;5032675;28;20107;-85
2022/01/05 09:10:09;;;;;;;11.20;1.98;;;1.80;99.90;;;;;;5034270;28;20472;-85
2022/01/05 09:12:35;;;;;;;9.80;2.03;;;1.90;99.90;;;;;;5050970;28;20025;-84
2022/01/05 09:15:02;;;;;;;6.18;1.48;;;2.00;99.90;;;;;;5050743;28;20483;-84
2022/01/05 09:17:28;;;;;;;6.03;1.60;;;2.00;99.90;;;;;;5032075;28;20067;-84
2022/01/05 09:19:54;;;;;;;15.85;2.65;;;2.10;99.90;;;;;;4999655;28;20057;-84
2022/01/05 09:22:21;;;;;;;12.25;2.15;;;2.10;99.90;;;;;;5050296;28;20064;-84
2022/01/05 09:24:47;;;;;;;5.72;1.80;;;2.10;99.90;;;;;;5034490;28;20060;-84
2022/01/05 09:27:13;;;;;;;15.23;2.42;;;2.20;99.90;;;;;;5050700;28;20502;-84
2022/01/05 09:29:40;;;;;;;12.43;2.10;;;2.30;99.90;;;;;;5051048;28;20043;-84
2022/01/05 09:32:08;;;;;;;15.15;2.67;;;2.30;99.90;;;;;;5045878;28;20029;-84
2022/01/05 09:34:36;;;;;;;13.73;1.80;;;2.30;99.90;;;;;;5036850;28;20115;-85
2022/01/05 09:37:12;;;;;;;5.53;1.73;;;2.30;99.90;;;;;;5022692;28;20395;-85
2022/01/05 09:42:23;;;;;;;5.38;1.48;;;2.30;99.90;;;;;;5036149;28;20044;-84
2022/01/05 09:44:52;;;;;;;14.43;1.90;;;2.30;99.90;;;;;;4998737;28;20143;-84
2022/01/05 09:47:31;;;;;;;9.40;1.90;;;2.30;99.90;;;;;;5023024;28;20057;-84
2022/01/05 09:50:11;;;;;;;7.10;1.98;;;2.30;99.90;;;;;;5044940;28;20032;-84
2022/01/05 09:52:39;;;;;;;8.75;1.60;;;2.30;99.90;;;;;;5019134;28;20037;-84
2022/01/05 09:55:10;;;;;;;8.07;2.08;;;2.30;99.90;;;;;;5022728;28;20029;-84
2022/01/05 09:57:45;;;;;;;12.32;2.20;;;2.30;99.90;;;;;;5022376;28;20068;-83
2022/01/05 10:00:15;;;;;;;12.88;2.55;;;2.30;99.90;;;;;;5021296;28;20053;-84
2022/01/05 10:02:42;;;;;;;8.48;2.30;;;2.40;99.90;;;;;;5029950;28;20036;-85
2022/01/05 10:05:10;;;;;;;15.88;2.08;;;2.40;99.90;;;;;;5030811;28;20061;-84
2022/01/05 10:07:35;;;;;;;12.73;2.72;;;2.40;99.90;;;;;;5013339;28;20030;-85
2022/01/05 10:10:02;;;;;;;14.13;2.05;;;2.40;99.90;;;;;;5014153;28;20395;-84
2022/01/05 10:12:28;;;;;;;12.88;2.35;;;2.40;99.90;;;;;;5013654;28;20038;-85
2022/01/05 10:14:54;;;;;;;11.77;2.40;;;2.40;99.90;;;;;;5013215;28;20103;-85
2022/01/05 10:17:25;;;;;;;11.27;1.95;;;2.40;99.90;;;;;;5013503;28;20503;-85
2022/01/05 10:20:04;;;;;;;9.02;1.77;;;2.40;99.90;;;;;;5032596;28;20029;-85
2022/01/05 10:22:36;;;;;;;9.43;2.17;;;2.40;99.90;;;;;;5049265;28;20029;-85
2022/01/05 10:25:07;;;;;;;13.80;2.33;;;2.40;99.90;;;;;;5044563;28;20018;-85
2022/01/05 10:27:34;;;;;;;14.10;2.10;;;2.30;99.90;;;;;;5013411;28;20485;-85
2022/01/05 10:30:11;;;;;;;11.57;2.28;;;2.30;99.90;;;;;;4996215;28;20041;-85
2022/01/05 10:32:37;;;;;;;8.27;1.98;;;2.30;99.90;;;;;;5011654;22;20107;-88
2022/01/05 10:35:15;;;;;;;9.80;2.17;;;2.30;99.90;;;;;;4991872;28;20045;-87
2022/01/05 10:37:43;;;;;;;9.60;2.33;;;2.30;99.90;;;;;;4992248;28;20136;-88
2022/01/05 10:40:20;;;;;;;8.02;1.50;;;2.30;99.90;;;;;;4992689;28;20030;-88
2022/01/05 10:42:53;;;;;;;13.02;1.80;;;2.30;99.90;;;;;;5007742;28;20028;-88
2022/01/05 10:45:43;;;;;;;8.18;1.75;;;2.30;99.90;;;;;;5015756;28;20034;-88
2022/01/05 10:48:21;;;;;;;7.57;1.77;;;2.30;99.90;;;;;;5003237;28;20038;-88
2022/01/05 10:51:04;;;;;;;3.92;1.55;;;2.40;99.90;;;;;;4977827;28;20058;-88
2022/01/05 10:53:29;;;;;;;10.13;1.77;;;2.50;99.90;;;;;;5000223;28;20026;-88
2022/01/05 10:55:55;;;;;;;9.18;1.52;;;2.50;99.90;;;;;;5013339;28;20084;-88
2022/01/05 10:58:20;;;;;;;5.78;1.40;;;2.50;99.90;;;;;;4996044;28;20096;-88
2022/01/05 11:00:52;;;;;;;15.10;2.00;;;2.50;99.90;;;;;;4980189;28;20116;-88
2022/01/05 11:03:38;;;;;;;7.03;1.52;;;2.60;99.90;;;;;;5003798;28;20030;-88
2022/01/05 11:06:08;;;;;;;8.10;1.92;;;2.60;99.90;;;;;;4977134;28;20038;-89
2022/01/05 11:08:53;;;;;;;8.05;1.92;;;2.60;99.90;;;;;;4994543;28;20395;-87
2022/01/05 11:11:36;;;;;;;8.13;1.65;;;2.70;99.90;;;;;;5001621;28;20022;-87
2022/01/05 11:14:32;;;;;;;6.07;1.85;;;2.70;99.90;;;;;;4996166;28;20086;-88
2022/01/05 11:17:01;;;;;;;8.00;1.73;;;2.70;99.90;;;;;;5004319;28;20088;-88
2022/01/05 11:19:30;;;;;;;5.60;2.03;;;2.70;99.90;;;;;;4965748;28;20034;-89
2022/01/05 11:22:07;;;;;;;6.53;1.75;;;2.70;99.90;;;;;;4993862;28;20026;-88
2022/01/05 11:24:34;;;;;;;9.23;1.75;;;2.70;99.90;;;;;;5002484;28;20534;-87
2022/01/05 11:27:01;;;;;;;3.85;2.85;;;2.80;99.90;;;;;;4999133;28;20038;-87
2022/01/05 11:29:27;;;;;;;12.70;2.15;;;2.80;99.90;;;;;;4984384;28;20037;-87
2022/01/05 11:31:57;;;;;;;3.13;1.15;;;2.80;99.70;;;;;;5010471;28;20034;-87
2022/01/05 11:34:26;;;;;;;8.38;1.80;;;2.80;99.90;;;;;;4992807;28;20045;-87
2022/01/05 11:36:51;;;;;;;3.78;1.75;;;2.80;99.90;;;;;;4986543;28;20046;-87
2022/01/05 11:39:17;;;;;;;4.70;1.92;;;2.80;99.90;;;;;;4978323;28;20289;-89
2022/01/05 11:41:48;;;;;;;4.75;1.58;;;2.80;99.90;;;;;;5000711;28;20482;-88
2022/01/05 11:44:14;;;;;;;5.30;1.50;;;2.90;99.90;;;;;;5012726;28;20549;-87
2022/01/05 11:46:45;;;;;;;8.25;1.95;;;2.90;99.90;;;;;;5004940;28;20040;-86
2022/01/05 11:49:13;;;;;;;9.18;2.13;;;2.80;99.50;;;;;;4986028;28;20126;-87
2022/01/05 11:51:41;;;;;;;11.90;1.70;;;2.80;99.90;;;;;;4994335;28;20064;-87
2022/01/05 11:54:30;;;;;;;12.45;2.13;;;2.70;99.90;;;;;;4995713;28;20117;-87
2022/01/05 11:57:10;;;;;;;6.82;1.77;;;2.70;99.90;;;;;;4991589;28;20141;-88
2022/01/05 11:59:40;;;;;;;10.10;2.00;;;2.70;99.50;;;;;;4976906;28;20072;-87
2022/01/05 12:02:13;;;;;;;3.20;1.77;;;2.70;99.70;;;;;;4987889;28;20125;-87
2022/01/05 12:05:01;;;;;;;6.05;1.67;;;2.60;99.90;;;;;;4977214;28;20034;-87
2022/01/05 12:07:55;;;;;;;4.45;1.38;;;2.60;99.80;;;;;;4992649;28;20282;-86
2022/01/05 12:10:23;;;;;;;7.15;1.50;;;2.60;98.60;;;;;;4975222;28;20065;-87
2022/01/05 12:13:02;;;;;;;9.77;1.40;;;2.70;99.40;;;;;;4977518;28;20035;-87
2022/01/05 12:15:51;;;;;;;7.40;1.67;;;2.60;98.60;;;;;;4985323;28;20077;-87
2022/01/05 12:18:29;;;;;;;11.80;1.67;;;2.70;97.90;;;;;;4997151;28;20026;-88
2022/01/05 12:20:57;;;;;;;13.77;1.50;;;2.70;97.40;;;;;;4992985;28;20026;-86
2022/01/05 12:23:26;;;;;;;5.63;1.33;;;2.70;98.30;;;;;;5011666;28;20029;-88
2022/01/05 12:26:02;;;;;;;10.25;1.58;;;2.70;98.50;;;;;;5010359;28;20118;-87
2022/01/05 12:28:30;;;;;;;11.15;1.70;;;2.70;97.40;;;;;;5002024;28;20019;-88
2022/01/05 12:30:55;;;;;;;7.55;1.70;;;2.80;96.40;;;;;;5005104;28;20061;-88
2022/01/05 12:33:21;;;;;;;6.68;1.58;;;2.80;96.10;;;;;;4994503;28;20525;-87
2022/01/05 12:35:56;;;;;;;2.55;1.00;;;2.80;97.20;;;;;;5010398;28;20405;-87
2022/01/05 12:38:36;;;;;;;7.85;1.40;;;2.80;97.30;;;;;;4994717;28;20064;-89
2022/01/05 12:41:21;;;;;;;;;;;2.80;96.50;;;;;;4976705;28;20247;-85
2022/01/05 12:43:46;;;;;;;11.77;1.58;;;2.80;97.40;;;;;;5007510;28;19951;-88
2022/01/05 12:46:13;;;;;;;8.10;1.35;;;2.70;97.10;;;;;;4993554;28;20057;-87
2022/01/05 12:48:43;;;;;;;4.53;1.38;;;2.70;96.20;;;;;;5010697;28;20505;-87
2022/01/05 12:51:12;;;;;;;8.47;1.50;;;2.60;97.50;;;;;;5003510;28;20026;-87
2022/01/05 12:53:52;;;;;;;7.45;1.75;;;2.60;96.80;;;;;;5010727;28;20038;-87
2022/01/05 12:56:19;;;;;;;6.05;1.23;;;2.50;98.00;;;;;;5005093;28;20462;-87
2022/01/05 12:58:48;;;;;;;6.20;1.40;;;2.50;98.10;;;;;;4992976;28;20033;-86
2022/01/05 13:01:14;;;;;;;5.10;1.25;;;2.50;97.40;;;;;;5010659;28;20049;-87